sensor_id;sensor_type;location;lat;lon;timestamp;pressure;altitude;pressure_sealevel;temperature;humidity
68656;BME280;55638;51.122;13.606;2023-06-10T00:01:03;99931.09;;;17.59;44.93
68656;BME280;55638;51.122;13.606;2023-06-10T00:02:36;99932.09;;;17.58;43.96
68656;BME280;55638;51.122;13.606;2023-06-10T00:04:08;99930.22;;;17.58;43.96
68656;BME280;55638;51.122;13.606;2023-06-10T00:05:40;99926.66;;;17.58;43.82
68656;BME280;55638;51.122;13.606;2023-06-10T00:07:12;99924.13;;;17.56;43.68
68656;BME280;55638;51.122;13.606;2023-06-10T00:08:44;99929.56;;;17.56;44.48
68656;BME280;55638;51.122;13.606;2023-06-10T00:10:18;99926.16;;;17.54;43.83
68656;BME280;55638;51.122;13.606;2023-06-10T00:11:50;99929.72;;;17.55;43.32
68656;BME280;55638;51.122;13.606;2023-06-10T00:13:22;99925.50;;;17.52;43.02
68656;BME280;55638;51.122;13.606;2023-06-10T00:14:54;99924.63;;;17.52;42.68
68656;BME280;55638;51.122;13.606;2023-06-10T00:16:26;99923.16;;;17.49;43.27
68656;BME280;55638;51.122;13.606;2023-06-10T00:17:58;99916.19;;;17.47;43.21
68656;BME280;55638;51.122;13.606;2023-06-10T00:19:30;99929.97;;;17.45;43.48
68656;BME280;55638;51.122;13.606;2023-06-10T00:21:02;99936.66;;;17.43;43.58
68656;BME280;55638;51.122;13.606;2023-06-10T00:22:36;99945.19;;;17.39;43.32
68656;BME280;55638;51.122;13.606;2023-06-10T00:24:08;99939.88;;;17.38;42.99
68656;BME280;55638;51.122;13.606;2023-06-10T00:25:46;99942.13;;;17.34;43.24
68656;BME280;55638;51.122;13.606;2023-06-10T00:27:18;99938.91;;;17.31;43.51
68656;BME280;55638;51.122;13.606;2023-06-10T00:28:49;99945.56;;;17.28;43.43
68656;BME280;55638;51.122;13.606;2023-06-10T00:30:21;99946.94;;;17.24;43.60
68656;BME280;55638;51.122;13.606;2023-06-10T00:31:53;99946.47;;;17.21;43.04
68656;BME280;55638;51.122;13.606;2023-06-10T00:33:29;99949.69;;;17.16;44.02
68656;BME280;55638;51.122;13.606;2023-06-10T00:35:01;99946.63;;;17.11;43.38
68656;BME280;55638;51.122;13.606;2023-06-10T00:36:35;99944.63;;;17.05;43.45
68656;BME280;55638;51.122;13.606;2023-06-10T00:38:07;99948.72;;;17.01;43.64
68656;BME280;55638;51.122;13.606;2023-06-10T00:39:40;99943.97;;;16.94;43.54
68656;BME280;55638;51.122;13.606;2023-06-10T00:41:11;99946.38;;;16.89;43.65
68656;BME280;55638;51.122;13.606;2023-06-10T00:42:43;99948.94;;;16.83;43.79
68656;BME280;55638;51.122;13.606;2023-06-10T00:44:15;99940.63;;;16.76;44.34
68656;BME280;55638;51.122;13.606;2023-06-10T00:45:47;99945.91;;;16.69;43.94
68656;BME280;55638;51.122;13.606;2023-06-10T00:47:19;99943.88;;;16.63;44.86
68656;BME280;55638;51.122;13.606;2023-06-10T00:48:51;99950.03;;;16.57;44.60
68656;BME280;55638;51.122;13.606;2023-06-10T00:50:23;99941.72;;;16.51;45.71
68656;BME280;55638;51.122;13.606;2023-06-10T00:51:56;99938.69;;;16.45;43.66
68656;BME280;55638;51.122;13.606;2023-06-10T00:53:27;99940.34;;;16.38;45.27
68656;BME280;55638;51.122;13.606;2023-06-10T00:54:59;99941.88;;;16.33;44.39
68656;BME280;55638;51.122;13.606;2023-06-10T00:56:32;99945.09;;;16.28;44.79
68656;BME280;55638;51.122;13.606;2023-06-10T00:58:06;99945.78;;;16.22;44.33
68656;BME280;55638;51.122;13.606;2023-06-10T00:59:38;99954.47;;;16.17;44.14
68656;BME280;55638;51.122;13.606;2023-06-10T01:01:11;99955.84;;;16.13;43.92
68656;BME280;55638;51.122;13.606;2023-06-10T01:02:44;99957.34;;;16.08;43.58
68656;BME280;55638;51.122;13.606;2023-06-10T01:04:15;99953.44;;;16.02;44.20
68656;BME280;55638;51.122;13.606;2023-06-10T01:05:49;99962.97;;;15.98;43.95
68656;BME280;55638;51.122;13.606;2023-06-10T01:07:28;99956.31;;;15.92;44.50
68656;BME280;55638;51.122;13.606;2023-06-10T01:13:52;99983.16;;;15.71;44.30
68656;BME280;55638;51.122;13.606;2023-06-10T01:15:28;99979.03;;;15.67;44.16
68656;BME280;55638;51.122;13.606;2023-06-10T01:17:00;99980.59;;;15.61;44.43
68656;BME280;55638;51.122;13.606;2023-06-10T01:18:33;99981.75;;;15.59;44.59
68656;BME280;55638;51.122;13.606;2023-06-10T01:20:05;99985.84;;;15.54;44.59
68656;BME280;55638;51.122;13.606;2023-06-10T01:21:43;99975.59;;;15.48;44.51
68656;BME280;55638;51.122;13.606;2023-06-10T01:23:16;99982.38;;;15.44;45.07
68656;BME280;55638;51.122;13.606;2023-06-10T01:24:49;99969.44;;;15.38;45.17
68656;BME280;55638;51.122;13.606;2023-06-10T01:26:23;99974.38;;;15.35;44.33
68656;BME280;55638;51.122;13.606;2023-06-10T01:29:35;99983.63;;;15.24;44.28
68656;BME280;55638;51.122;13.606;2023-06-10T01:31:10;99990.59;;;15.18;44.48
68656;BME280;55638;51.122;13.606;2023-06-10T01:32:45;99997.53;;;15.13;45.38
68656;BME280;55638;51.122;13.606;2023-06-10T01:34:20;99995.28;;;15.08;45.24
68656;BME280;55638;51.122;13.606;2023-06-10T01:35:52;99999.66;;;15.01;44.75
68656;BME280;55638;51.122;13.606;2023-06-10T01:37:24;100000.16;;;14.96;44.95
68656;BME280;55638;51.122;13.606;2023-06-10T01:38:57;99999.78;;;14.91;44.72
68656;BME280;55638;51.122;13.606;2023-06-10T01:40:31;100003.81;;;14.87;44.80
68656;BME280;55638;51.122;13.606;2023-06-10T01:42:04;100001.75;;;14.81;44.36
68656;BME280;55638;51.122;13.606;2023-06-10T01:43:37;99996.81;;;14.76;44.04
68656;BME280;55638;51.122;13.606;2023-06-10T01:45:10;99993.72;;;14.71;44.12
68656;BME280;55638;51.122;13.606;2023-06-10T01:46:42;99994.22;;;14.67;44.07
68656;BME280;55638;51.122;13.606;2023-06-10T01:48:15;100000.91;;;14.62;44.27
68656;BME280;55638;51.122;13.606;2023-06-10T01:49:47;100003.28;;;14.57;44.54
68656;BME280;55638;51.122;13.606;2023-06-10T01:51:19;100002.75;;;14.54;43.86
68656;BME280;55638;51.122;13.606;2023-06-10T01:52:51;100004.94;;;14.50;44.08
68656;BME280;55638;51.122;13.606;2023-06-10T01:54:22;100002.53;;;14.47;44.93
68656;BME280;55638;51.122;13.606;2023-06-10T01:55:54;100014.53;;;14.45;44.46
68656;BME280;55638;51.122;13.606;2023-06-10T01:57:27;100011.13;;;14.43;44.57
68656;BME280;55638;51.122;13.606;2023-06-10T01:58:59;100018.72;;;14.39;44.47
68656;BME280;55638;51.122;13.606;2023-06-10T02:00:30;100017.16;;;14.36;44.63
68656;BME280;55638;51.122;13.606;2023-06-10T02:02:03;100013.78;;;14.34;44.41
68656;BME280;55638;51.122;13.606;2023-06-10T02:03:35;100016.63;;;14.33;44.54
68656;BME280;55638;51.122;13.606;2023-06-10T02:05:07;100017.81;;;14.30;44.85
68656;BME280;55638;51.122;13.606;2023-06-10T02:06:40;100027.13;;;14.28;45.10
68656;BME280;55638;51.122;13.606;2023-06-10T02:08:13;100024.53;;;14.26;44.73
68656;BME280;55638;51.122;13.606;2023-06-10T02:09:45;100020.28;;;14.24;45.19
68656;BME280;55638;51.122;13.606;2023-06-10T02:11:16;100025.88;;;14.22;45.21
68656;BME280;55638;51.122;13.606;2023-06-10T02:12:48;100022.44;;;14.20;44.92
68656;BME280;55638;51.122;13.606;2023-06-10T02:14:20;100025.16;;;14.20;44.66
68656;BME280;55638;51.122;13.606;2023-06-10T02:15:52;100021.91;;;14.17;44.96
68656;BME280;55638;51.122;13.606;2023-06-10T02:17:25;100019.38;;;14.15;45.12
68656;BME280;55638;51.122;13.606;2023-06-10T02:18:58;100022.22;;;14.13;46.10
68656;BME280;55638;51.122;13.606;2023-06-10T02:20:31;100021.69;;;14.10;46.32
68656;BME280;55638;51.122;13.606;2023-06-10T02:22:03;100017.28;;;14.09;45.94
68656;BME280;55638;51.122;13.606;2023-06-10T02:23:35;100012.00;;;14.07;45.31
68656;BME280;55638;51.122;13.606;2023-06-10T02:25:08;100015.72;;;14.06;45.45
68656;BME280;55638;51.122;13.606;2023-06-10T02:26:41;100022.31;;;14.04;45.23
68656;BME280;55638;51.122;13.606;2023-06-10T02:28:12;100016.19;;;14.02;45.13
68656;BME280;55638;51.122;13.606;2023-06-10T02:29:44;100028.91;;;14.01;45.03
68656;BME280;55638;51.122;13.606;2023-06-10T02:31:17;100029.22;;;13.98;46.28
68656;BME280;55638;51.122;13.606;2023-06-10T02:32:50;100029.22;;;13.98;45.71
68656;BME280;55638;51.122;13.606;2023-06-10T02:34:23;100034.06;;;13.95;45.82
68656;BME280;55638;51.122;13.606;2023-06-10T02:35:56;100031.53;;;13.93;46.43
68656;BME280;55638;51.122;13.606;2023-06-10T02:37:29;100029.13;;;13.90;46.21
68656;BME280;55638;51.122;13.606;2023-06-10T02:39:01;100031.81;;;13.90;45.71
68656;BME280;55638;51.122;13.606;2023-06-10T02:40:34;100029.28;;;13.88;45.87
68656;BME280;55638;51.122;13.606;2023-06-10T02:42:06;100027.72;;;13.86;46.28
68656;BME280;55638;51.122;13.606;2023-06-10T02:43:38;100028.75;;;13.85;46.50
68656;BME280;55638;51.122;13.606;2023-06-10T02:45:11;100032.44;;;13.84;46.37
68656;BME280;55638;51.122;13.606;2023-06-10T02:46:45;100021.91;;;13.81;46.63
68656;BME280;55638;51.122;13.606;2023-06-10T02:48:17;100026.47;;;13.80;46.09
68656;BME280;55638;51.122;13.606;2023-06-10T02:49:48;100023.94;;;13.79;46.18
68656;BME280;55638;51.122;13.606;2023-06-10T02:51:20;100024.06;;;13.77;46.47
68656;BME280;55638;51.122;13.606;2023-06-10T02:52:57;100027.63;;;13.78;47.21
68656;BME280;55638;51.122;13.606;2023-06-10T02:54:29;100028.66;;;13.77;46.96
68656;BME280;55638;51.122;13.606;2023-06-10T02:56:01;100026.09;;;13.75;47.35
68656;BME280;55638;51.122;13.606;2023-06-10T02:57:33;100022.50;;;13.75;48.24
68656;BME280;55638;51.122;13.606;2023-06-10T02:59:06;100020.81;;;13.74;48.22
68656;BME280;55638;51.122;13.606;2023-06-10T03:00:39;100028.19;;;13.72;48.99
68656;BME280;55638;51.122;13.606;2023-06-10T03:02:13;100020.06;;;13.72;48.78
68656;BME280;55638;51.122;13.606;2023-06-10T03:03:51;100031.94;;;13.71;48.77
68656;BME280;55638;51.122;13.606;2023-06-10T03:05:23;100024.81;;;13.69;48.41
68656;BME280;55638;51.122;13.606;2023-06-10T03:06:57;100032.22;;;13.67;48.19
68656;BME280;55638;51.122;13.606;2023-06-10T03:08:34;100028.84;;;13.65;48.04
68656;BME280;55638;51.122;13.606;2023-06-10T03:10:10;100041.38;;;13.66;46.96
68656;BME280;55638;51.122;13.606;2023-06-10T03:11:44;100030.84;;;13.63;47.54
68656;BME280;55638;51.122;13.606;2023-06-10T03:13:16;100033.69;;;13.62;47.37
68656;BME280;55638;51.122;13.606;2023-06-10T03:14:49;100036.56;;;13.60;46.87
68656;BME280;55638;51.122;13.606;2023-06-10T03:16:21;100037.69;;;13.58;47.60
68656;BME280;55638;51.122;13.606;2023-06-10T03:17:53;100033.44;;;13.55;47.92
68656;BME280;55638;51.122;13.606;2023-06-10T03:19:25;100035.47;;;13.53;47.76
68656;BME280;55638;51.122;13.606;2023-06-10T03:20:58;100040.03;;;13.53;47.44
68656;BME280;55638;51.122;13.606;2023-06-10T03:22:31;100043.72;;;13.52;47.77
68656;BME280;55638;51.122;13.606;2023-06-10T03:24:10;100044.91;;;13.49;48.21
68656;BME280;55638;51.122;13.606;2023-06-10T03:25:42;100040.47;;;13.48;48.21
68656;BME280;55638;51.122;13.606;2023-06-10T03:27:18;100044.91;;;13.49;47.60
68656;BME280;55638;51.122;13.606;2023-06-10T03:28:53;100048.59;;;13.48;47.70
68656;BME280;55638;51.122;13.606;2023-06-10T03:30:27;100052.31;;;13.47;47.79
68656;BME280;55638;51.122;13.606;2023-06-10T03:32:00;100047.91;;;13.46;47.83
68656;BME280;55638;51.122;13.606;2023-06-10T03:33:32;100046.06;;;13.47;48.27
68656;BME280;55638;51.122;13.606;2023-06-10T03:35:05;100050.63;;;13.46;49.21
68656;BME280;55638;51.122;13.606;2023-06-10T03:36:37;100056.03;;;13.46;49.15
68656;BME280;55638;51.122;13.606;2023-06-10T03:38:14;100048.88;;;13.45;49.13
68656;BME280;55638;51.122;13.606;2023-06-10T03:39:46;100055.03;;;13.47;48.06
68656;BME280;55638;51.122;13.606;2023-06-10T03:41:18;100051.47;;;13.47;49.15
68656;BME280;55638;51.122;13.606;2023-06-10T03:42:51;100053.31;;;13.46;49.14
68656;BME280;55638;51.122;13.606;2023-06-10T03:44:24;100052.31;;;13.47;49.24
68656;BME280;55638;51.122;13.606;2023-06-10T03:45:56;100055.03;;;13.47;48.62
68656;BME280;55638;51.122;13.606;2023-06-10T03:47:33;100061.16;;;13.49;49.56
68656;BME280;55638;51.122;13.606;2023-06-10T03:49:06;100054.84;;;13.49;49.76
68656;BME280;55638;51.122;13.606;2023-06-10T03:50:38;100054.00;;;13.48;49.58
68656;BME280;55638;51.122;13.606;2023-06-10T03:52:10;100058.44;;;13.49;49.75
68656;BME280;55638;51.122;13.606;2023-06-10T03:53:42;100059.28;;;13.50;49.55
68656;BME280;55638;51.122;13.606;2023-06-10T03:55:13;100066.41;;;13.51;49.70
68656;BME280;55638;51.122;13.606;2023-06-10T03:56:48;100069.97;;;13.51;49.74
68656;BME280;55638;51.122;13.606;2023-06-10T03:58:20;100068.09;;;13.52;49.58
68656;BME280;55638;51.122;13.606;2023-06-10T03:59:51;100060.81;;;13.52;49.43
68656;BME280;55638;51.122;13.606;2023-06-10T04:01:24;100063.53;;;13.52;49.23
68656;BME280;55638;51.122;13.606;2023-06-10T04:02:56;100068.94;;;13.52;49.51
68656;BME280;55638;51.122;13.606;2023-06-10T04:04:37;100066.22;;;13.52;49.10
68656;BME280;55638;51.122;13.606;2023-06-10T04:06:09;100073.38;;;13.53;48.90
68656;BME280;55638;51.122;13.606;2023-06-10T04:07:41;100067.13;;;13.53;49.92
68656;BME280;55638;51.122;13.606;2023-06-10T04:09:14;100073.38;;;13.53;49.68
68656;BME280;55638;51.122;13.606;2023-06-10T04:10:48;100070.50;;;13.55;49.68
68656;BME280;55638;51.122;13.606;2023-06-10T04:12:20;100067.97;;;13.53;49.97
68656;BME280;55638;51.122;13.606;2023-06-10T04:13:52;100073.06;;;13.56;49.76
68656;BME280;55638;51.122;13.606;2023-06-10T04:15:25;100072.22;;;13.56;49.70
68656;BME280;55638;51.122;13.606;2023-06-10T04:16:57;100073.94;;;13.57;50.03
68656;BME280;55638;51.122;13.606;2023-06-10T04:18:29;100080.19;;;13.57;49.44
68656;BME280;55638;51.122;13.606;2023-06-10T04:20:05;100072.78;;;13.59;49.67
68656;BME280;55638;51.122;13.606;2023-06-10T04:21:40;100068.03;;;13.61;49.66
68656;BME280;55638;51.122;13.606;2023-06-10T04:23:13;100072.47;;;13.62;49.81
68656;BME280;55638;51.122;13.606;2023-06-10T04:24:47;100063.34;;;13.63;49.99
68656;BME280;55638;51.122;13.606;2023-06-10T04:26:19;100069.47;;;13.65;50.22
68656;BME280;55638;51.122;13.606;2023-06-10T04:27:51;100071.84;;;13.68;49.55
68656;BME280;55638;51.122;13.606;2023-06-10T04:29:23;100073.56;;;13.69;49.77
68656;BME280;55638;51.122;13.606;2023-06-10T04:30:57;100075.25;;;13.71;50.26
68656;BME280;55638;51.122;13.606;2023-06-10T04:32:29;100073.31;;;13.73;50.50
68656;BME280;55638;51.122;13.606;2023-06-10T04:34:01;100074.88;;;13.75;50.43
68656;BME280;55638;51.122;13.606;2023-06-10T04:35:34;100078.13;;;13.79;50.10
68656;BME280;55638;51.122;13.606;2023-06-10T04:37:07;100065.25;;;13.81;50.47
68656;BME280;55638;51.122;13.606;2023-06-10T04:38:39;100073.06;;;13.84;50.40
68656;BME280;55638;51.122;13.606;2023-06-10T04:40:12;100069.03;;;13.88;50.80
68656;BME280;55638;51.122;13.606;2023-06-10T04:41:45;100070.31;;;13.94;50.76
68656;BME280;55638;51.122;13.606;2023-06-10T04:43:17;100068.00;;;13.99;50.78
68656;BME280;55638;51.122;13.606;2023-06-10T04:44:50;100070.94;;;14.05;50.80
68656;BME280;55638;51.122;13.606;2023-06-10T04:46:23;100065.59;;;14.13;50.89
68656;BME280;55638;51.122;13.606;2023-06-10T04:47:55;100068.09;;;14.25;51.06
68656;BME280;55638;51.122;13.606;2023-06-10T04:49:30;100065.00;;;14.37;51.22
68656;BME280;55638;51.122;13.606;2023-06-10T04:51:02;100069.69;;;14.53;51.37
68656;BME280;55638;51.122;13.606;2023-06-10T04:52:34;100071.38;;;14.72;51.46
68656;BME280;55638;51.122;13.606;2023-06-10T04:54:06;100070.03;;;14.94;51.60
68656;BME280;55638;51.122;13.606;2023-06-10T04:55:38;100071.69;;;15.21;51.78
68656;BME280;55638;51.122;13.606;2023-06-10T04:57:10;100069.63;;;15.49;51.49
68656;BME280;55638;51.122;13.606;2023-06-10T04:58:43;100082.38;;;15.83;51.48
68656;BME280;55638;51.122;13.606;2023-06-10T05:00:14;100071.59;;;16.16;51.79
68656;BME280;55638;51.122;13.606;2023-06-10T05:01:46;100068.75;;;16.50;51.50
68656;BME280;55638;51.122;13.606;2023-06-10T05:03:18;100071.94;;;16.86;51.19
68656;BME280;55638;51.122;13.606;2023-06-10T05:04:50;100076.00;;;17.23;51.29
68656;BME280;55638;51.122;13.606;2023-06-10T05:06:22;100082.69;;;17.60;51.45
68656;BME280;55638;51.122;13.606;2023-06-10T05:07:54;100072.97;;;17.97;50.85
68656;BME280;55638;51.122;13.606;2023-06-10T05:09:26;100066.94;;;18.32;50.83
68656;BME280;55638;51.122;13.606;2023-06-10T05:10:57;100072.28;;;18.72;50.87
68656;BME280;55638;51.122;13.606;2023-06-10T05:12:29;100077.94;;;19.08;50.55
68656;BME280;55638;51.122;13.606;2023-06-10T05:14:01;100077.84;;;19.46;50.27
68656;BME280;55638;51.122;13.606;2023-06-10T05:15:33;100078.75;;;19.83;50.00
68656;BME280;55638;51.122;13.606;2023-06-10T05:17:05;100078.97;;;20.17;49.61
68656;BME280;55638;51.122;13.606;2023-06-10T05:18:40;100067.97;;;20.54;49.48
68656;BME280;55638;51.122;13.606;2023-06-10T05:20:12;100070.00;;;20.88;48.90
68656;BME280;55638;51.122;13.606;2023-06-10T05:21:45;100077.38;;;21.22;48.39
68656;BME280;55638;51.122;13.606;2023-06-10T05:23:17;100076.75;;;21.55;48.71
68656;BME280;55638;51.122;13.606;2023-06-10T05:24:48;100087.91;;;21.88;48.38
68656;BME280;55638;51.122;13.606;2023-06-10T05:26:20;100078.97;;;22.21;48.16
68656;BME280;55638;51.122;13.606;2023-06-10T05:27:52;100086.81;;;22.50;47.53
68656;BME280;55638;51.122;13.606;2023-06-10T05:29:24;100076.31;;;22.81;46.81
68656;BME280;55638;51.122;13.606;2023-06-10T05:30:55;100081.34;;;23.10;46.97
68656;BME280;55638;51.122;13.606;2023-06-10T05:32:27;100081.78;;;23.40;46.02
68656;BME280;55638;51.122;13.606;2023-06-10T05:33:59;100081.44;;;23.69;45.33
68656;BME280;55638;51.122;13.606;2023-06-10T05:35:31;100078.38;;;23.97;44.81
68656;BME280;55638;51.122;13.606;2023-06-10T05:37:03;100083.53;;;24.25;44.75
68656;BME280;55638;51.122;13.606;2023-06-10T05:38:34;100081.47;;;24.52;44.85
68656;BME280;55638;51.122;13.606;2023-06-10T05:40:06;100079.16;;;24.80;44.93
68656;BME280;55638;51.122;13.606;2023-06-10T05:41:38;100085.47;;;25.06;43.86
68656;BME280;55638;51.122;13.606;2023-06-10T05:43:10;100086.31;;;25.32;43.87
68656;BME280;55638;51.122;13.606;2023-06-10T05:44:42;100083.50;;;25.57;43.72
68656;BME280;55638;51.122;13.606;2023-06-10T05:46:14;100088.38;;;25.80;43.09
68656;BME280;55638;51.122;13.606;2023-06-10T05:47:46;100092.94;;;26.04;43.08
68656;BME280;55638;51.122;13.606;2023-06-10T05:49:18;100091.34;;;26.27;43.54
68656;BME280;55638;51.122;13.606;2023-06-10T05:50:50;100093.59;;;26.48;42.64
68656;BME280;55638;51.122;13.606;2023-06-10T05:52:21;100089.22;;;26.71;42.78
68656;BME280;55638;51.122;13.606;2023-06-10T05:53:53;100094.22;;;26.92;41.66
68656;BME280;55638;51.122;13.606;2023-06-10T05:55:25;100081.72;;;27.13;41.87
68656;BME280;55638;51.122;13.606;2023-06-10T05:56:57;100084.09;;;27.33;41.17
68656;BME280;55638;51.122;13.606;2023-06-10T05:58:29;100084.00;;;27.51;38.57
68656;BME280;55638;51.122;13.606;2023-06-10T06:00:01;100080.00;;;27.71;39.70
68656;BME280;55638;51.122;13.606;2023-06-10T06:01:42;100082.59;;;27.89;39.40
68656;BME280;55638;51.122;13.606;2023-06-10T06:03:14;100088.22;;;28.06;40.25
68656;BME280;55638;51.122;13.606;2023-06-10T06:04:46;100088.75;;;28.20;38.91
68656;BME280;55638;51.122;13.606;2023-06-10T06:06:18;100081.81;;;28.34;40.08
68656;BME280;55638;51.122;13.606;2023-06-10T06:07:52;100086.84;;;28.49;40.31
68656;BME280;55638;51.122;13.606;2023-06-10T06:09:24;100082.91;;;28.62;37.38
68656;BME280;55638;51.122;13.606;2023-06-10T06:10:55;100076.44;;;28.73;37.58
68656;BME280;55638;51.122;13.606;2023-06-10T06:12:27;100081.66;;;28.86;38.47
68656;BME280;55638;51.122;13.606;2023-06-10T06:13:59;100082.41;;;28.98;38.62
68656;BME280;55638;51.122;13.606;2023-06-10T06:15:31;100083.19;;;29.11;39.46
68656;BME280;55638;51.122;13.606;2023-06-10T06:17:03;100081.16;;;29.23;37.86
68656;BME280;55638;51.122;13.606;2023-06-10T06:18:35;100079.13;;;29.35;38.15
68656;BME280;55638;51.122;13.606;2023-06-10T06:20:07;100081.44;;;29.43;35.24
68656;BME280;55638;51.122;13.606;2023-06-10T06:21:38;100087.47;;;29.57;38.31
68656;BME280;55638;51.122;13.606;2023-06-10T06:23:10;100084.28;;;29.65;37.00
68656;BME280;55638;51.122;13.606;2023-06-10T06:24:42;100092.72;;;29.76;35.11
68656;BME280;55638;51.122;13.606;2023-06-10T06:26:14;100097.56;;;29.85;37.28
68656;BME280;55638;51.122;13.606;2023-06-10T06:27:46;100100.47;;;29.96;37.20
68656;BME280;55638;51.122;13.606;2023-06-10T06:29:18;100098.97;;;30.05;37.84
68656;BME280;55638;51.122;13.606;2023-06-10T06:30:50;100094.34;;;30.16;39.00
68656;BME280;55638;51.122;13.606;2023-06-10T06:32:21;100096.66;;;30.24;36.29
68656;BME280;55638;51.122;13.606;2023-06-10T06:33:54;100099.56;;;30.34;38.60
68656;BME280;55638;51.122;13.606;2023-06-10T06:35:26;100096.28;;;30.42;36.61
68656;BME280;55638;51.122;13.606;2023-06-10T06:36:57;100096.94;;;30.49;36.89
68656;BME280;55638;51.122;13.606;2023-06-10T06:38:30;100103.41;;;30.55;37.28
68656;BME280;55638;51.122;13.606;2023-06-10T06:40:03;100087.88;;;30.59;35.66
68656;BME280;55638;51.122;13.606;2023-06-10T06:41:35;100096.25;;;30.64;36.95
68656;BME280;55638;51.122;13.606;2023-06-10T06:43:07;100094.09;;;30.71;37.37
68656;BME280;55638;51.122;13.606;2023-06-10T06:44:58;100096.34;;;30.74;35.91
68656;BME280;55638;51.122;13.606;2023-06-10T06:46:30;100097.50;;;30.78;34.76
68656;BME280;55638;51.122;13.606;2023-06-10T06:48:01;100101.16;;;30.84;35.70
68656;BME280;55638;51.122;13.606;2023-06-10T06:49:34;100097.59;;;30.89;36.42
68656;BME280;55638;51.122;13.606;2023-06-10T06:51:06;100093.16;;;30.93;35.46
68656;BME280;55638;51.122;13.606;2023-06-10T06:52:37;100101.56;;;30.98;35.16
68656;BME280;55638;51.122;13.606;2023-06-10T06:54:09;100100.50;;;31.04;37.25
68656;BME280;55638;51.122;13.606;2023-06-10T06:55:41;100106.72;;;31.11;36.06
68656;BME280;55638;51.122;13.606;2023-06-10T06:57:13;100105.63;;;31.17;35.58
68656;BME280;55638;51.122;13.606;2023-06-10T06:58:45;100115.16;;;31.26;37.40
68656;BME280;55638;51.122;13.606;2023-06-10T07:00:17;100118.56;;;31.34;36.66
68656;BME280;55638;51.122;13.606;2023-06-10T07:01:49;100124.97;;;31.39;35.75
68656;BME280;55638;51.122;13.606;2023-06-10T07:03:21;100124.75;;;31.46;34.91
68656;BME280;55638;51.122;13.606;2023-06-10T07:04:52;100126.75;;;31.50;34.90
68656;BME280;55638;51.122;13.606;2023-06-10T07:06:27;100129.84;;;31.54;35.22
68656;BME280;55638;51.122;13.606;2023-06-10T07:07:58;100132.63;;;31.54;35.64
68656;BME280;55638;51.122;13.606;2023-06-10T07:09:30;100125.94;;;31.50;34.99
68656;BME280;55638;51.122;13.606;2023-06-10T07:11:02;100131.38;;;31.40;32.14
68656;BME280;55638;51.122;13.606;2023-06-10T07:12:34;100129.69;;;31.34;34.54
68656;BME280;55638;51.122;13.606;2023-06-10T07:14:06;100141.31;;;31.25;33.00
68656;BME280;55638;51.122;13.606;2023-06-10T07:15:38;100134.31;;;31.18;33.44
68656;BME280;55638;51.122;13.606;2023-06-10T07:17:10;100140.13;;;31.16;34.36
68656;BME280;55638;51.122;13.606;2023-06-10T07:18:42;100132.31;;;31.13;34.22
68656;BME280;55638;51.122;13.606;2023-06-10T07:20:14;100133.44;;;31.12;32.09
68656;BME280;55638;51.122;13.606;2023-06-10T07:21:46;100137.34;;;31.16;34.43
68656;BME280;55638;51.122;13.606;2023-06-10T07:23:19;100136.81;;;31.19;32.72
68656;BME280;55638;51.122;13.606;2023-06-10T07:24:51;100135.75;;;31.25;33.21
68656;BME280;55638;51.122;13.606;2023-06-10T07:26:23;100133.84;;;31.31;32.15
68656;BME280;55638;51.122;13.606;2023-06-10T07:27:55;100132.50;;;31.39;35.37
68656;BME280;55638;51.122;13.606;2023-06-10T07:29:27;100131.66;;;31.38;33.54
68656;BME280;55638;51.122;13.606;2023-06-10T07:30:59;100131.91;;;31.37;33.06
68656;BME280;55638;51.122;13.606;2023-06-10T07:32:31;100129.94;;;31.32;33.69
68656;BME280;55638;51.122;13.606;2023-06-10T07:34:02;100127.97;;;31.27;33.54
68656;BME280;55638;51.122;13.606;2023-06-10T07:35:34;100133.50;;;31.22;34.60
68656;BME280;55638;51.122;13.606;2023-06-10T07:37:06;100137.94;;;31.18;33.86
68656;BME280;55638;51.122;13.606;2023-06-10T07:38:38;100135.06;;;31.08;32.93
68656;BME280;55638;51.122;13.606;2023-06-10T07:40:10;100145.22;;;30.97;32.34
68656;BME280;55638;51.122;13.606;2023-06-10T07:41:41;100145.16;;;30.87;32.87
68656;BME280;55638;51.122;13.606;2023-06-10T07:43:13;100138.06;;;30.74;31.77
68656;BME280;55638;51.122;13.606;2023-06-10T07:44:45;100141.28;;;30.61;31.36
68656;BME280;55638;51.122;13.606;2023-06-10T07:46:17;100142.00;;;30.51;32.46
68656;BME280;55638;51.122;13.606;2023-06-10T07:47:49;100141.66;;;30.43;34.05
68656;BME280;55638;51.122;13.606;2023-06-10T07:49:21;100141.25;;;30.34;33.52
68656;BME280;55638;51.122;13.606;2023-06-10T07:50:52;100141.78;;;30.31;33.49
68656;BME280;55638;51.122;13.606;2023-06-10T07:52:24;100137.06;;;30.31;34.35
68656;BME280;55638;51.122;13.606;2023-06-10T07:53:57;100141.84;;;30.36;35.30
68656;BME280;55638;51.122;13.606;2023-06-10T07:55:29;100151.06;;;30.42;34.45
68656;BME280;55638;51.122;13.606;2023-06-10T07:57:01;100148.88;;;30.44;31.43
68656;BME280;55638;51.122;13.606;2023-06-10T07:58:32;100153.13;;;30.51;34.32
68656;BME280;55638;51.122;13.606;2023-06-10T08:00:05;100150.63;;;30.50;32.28
68656;BME280;55638;51.122;13.606;2023-06-10T08:01:42;100147.84;;;30.50;33.32
68656;BME280;55638;51.122;13.606;2023-06-10T08:03:15;100146.22;;;30.54;33.08
68656;BME280;55638;51.122;13.606;2023-06-10T08:04:47;100141.50;;;30.54;33.35
68656;BME280;55638;51.122;13.606;2023-06-10T08:06:19;100144.56;;;30.53;32.27